sensor_id;sensor_type;location;lat;lon;timestamp;pressure;altitude;pressure_sealevel;temperature;humidity
23473;BME280;11909;52.516;13.564;2024-03-08T00:00:28;101807.63;;;1.38;100.00
23473;BME280;11909;52.516;13.564;2024-03-08T00:02:55;101797.19;;;1.35;100.00
23473;BME280;11909;52.516;13.564;2024-03-08T00:05:23;101801.13;;;1.33;100.00
23473;BME280;11909;52.516;13.564;2024-03-08T00:07:51;101800.47;;;1.31;100.00
23473;BME280;11909;52.516;13.564;2024-03-08T00:10:19;101797.59;;;1.32;100.00
23473;BME280;11909;52.516;13.564;2024-03-08T00:12:52;101796.50;;;1.26;100.00
23473;BME280;11909;52.516;13.564;2024-03-08T00:15:20;101797.50;;;1.25;100.00
23473;BME280;11909;52.516;13.564;2024-03-08T00:17:49;101798.94;;;1.21;100.00
23473;BME280;11909;52.516;13.564;2024-03-08T00:20:18;101788.56;;;1.25;100.00
23473;BME280;11909;52.516;13.564;2024-03-08T00:22:46;101795.19;;;1.22;100.00
23473;BME280;11909;52.516;13.564;2024-03-08T00:25:14;101794.56;;;1.20;100.00
23473;BME280;11909;52.516;13.564;2024-03-08T00:27:42;101786.06;;;1.23;100.00
23473;BME280;11909;52.516;13.564;2024-03-08T00:30:11;101790.44;;;1.24;100.00
23473;BME280;11909;52.516;13.564;2024-03-08T00:32:40;101805.75;;;1.17;100.00
23473;BME280;11909;52.516;13.564;2024-03-08T00:35:09;101800.78;;;1.21;100.00
23473;BME280;11909;52.516;13.564;2024-03-08T00:37:37;101802.84;;;1.19;100.00
23473;BME280;11909;52.516;13.564;2024-03-08T00:40:05;101795.38;;;1.21;100.00
23473;BME280;11909;52.516;13.564;2024-03-08T00:42:36;101797.38;;;1.12;100.00
23473;BME280;11909;52.516;13.564;2024-03-08T00:45:04;101793.59;;;1.06;100.00
23473;BME280;11909;52.516;13.564;2024-03-08T00:47:34;101790.88;;;1.06;100.00
23473;BME280;11909;52.516;13.564;2024-03-08T00:50:02;101792.53;;;1.07;100.00
23473;BME280;11909;52.516;13.564;2024-03-08T00:52:31;101791.53;;;1.08;100.00
23473;BME280;11909;52.516;13.564;2024-03-08T00:55:00;101781.09;;;1.05;100.00
23473;BME280;11909;52.516;13.564;2024-03-08T00:57:28;101776.63;;;0.97;100.00
23473;BME280;11909;52.516;13.564;2024-03-08T00:59:56;101779.91;;;0.93;100.00
23473;BME280;11909;52.516;13.564;2024-03-08T01:02:24;101779.72;;;0.94;100.00
23473;BME280;11909;52.516;13.564;2024-03-08T01:04:53;101774.09;;;0.96;100.00
23473;BME280;11909;52.516;13.564;2024-03-08T01:07:21;101774.50;;;0.93;100.00
23473;BME280;11909;52.516;13.564;2024-03-08T01:09:48;101770.75;;;0.94;100.00
23473;BME280;11909;52.516;13.564;2024-03-08T01:12:16;101768.63;;;0.89;100.00
23473;BME280;11909;52.516;13.564;2024-03-08T01:14:44;101768.63;;;0.89;100.00
23473;BME280;11909;52.516;13.564;2024-03-08T01:17:12;101754.97;;;0.76;100.00
23473;BME280;11909;52.516;13.564;2024-03-08T01:19:40;101761.41;;;0.75;100.00
23473;BME280;11909;52.516;13.564;2024-03-08T01:22:09;101746.59;;;0.70;100.00
23473;BME280;11909;52.516;13.564;2024-03-08T01:24:37;101745.66;;;0.63;100.00
23473;BME280;11909;52.516;13.564;2024-03-08T01:27:05;101744.75;;;0.56;100.00
23473;BME280;11909;52.516;13.564;2024-03-08T01:29:34;101737.41;;;0.50;100.00
23473;BME280;11909;52.516;13.564;2024-03-08T01:32:02;101735.16;;;0.53;100.00
23473;BME280;11909;52.516;13.564;2024-03-08T01:34:30;101730.50;;;0.47;100.00
23473;BME280;11909;52.516;13.564;2024-03-08T01:36:59;101733.88;;;0.49;100.00
23473;BME280;11909;52.516;13.564;2024-03-08T01:39:28;101724.28;;;0.47;100.00
23473;BME280;11909;52.516;13.564;2024-03-08T01:41:56;101718.22;;;0.45;100.00
23473;BME280;11909;52.516;13.564;2024-03-08T01:44:24;101725.50;;;0.44;100.00
23473;BME280;11909;52.516;13.564;2024-03-08T01:46:51;101728.19;;;0.44;100.00
23473;BME280;11909;52.516;13.564;2024-03-08T01:49:21;101725.03;;;0.40;100.00
23473;BME280;11909;52.516;13.564;2024-03-08T01:51:50;101720.84;;;0.38;100.00
23473;BME280;11909;52.516;13.564;2024-03-08T01:54:18;101720.09;;;0.44;100.00
23473;BME280;11909;52.516;13.564;2024-03-08T01:56:47;101713.56;;;0.38;100.00
23473;BME280;11909;52.516;13.564;2024-03-08T01:59:16;101714.13;;;0.34;100.00
23473;BME280;11909;52.516;13.564;2024-03-08T02:01:43;101710.34;;;0.28;100.00
23473;BME280;11909;52.516;13.564;2024-03-08T02:04:11;101711.00;;;0.30;100.00
23473;BME280;11909;52.516;13.564;2024-03-08T02:06:39;101705.31;;;0.25;100.00
23473;BME280;11909;52.516;13.564;2024-03-08T02:09:07;101700.34;;;0.28;100.00
23473;BME280;11909;52.516;13.564;2024-03-08T02:11:35;101705.59;;;0.30;100.00
23473;BME280;11909;52.516;13.564;2024-03-08T02:14:05;101701.75;;;0.39;100.00
23473;BME280;11909;52.516;13.564;2024-03-08T02:16:33;101698.41;;;0.37;100.00
23473;BME280;11909;52.516;13.564;2024-03-08T02:19:01;101689.19;;;0.32;100.00
23473;BME280;11909;52.516;13.564;2024-03-08T02:21:30;101691.78;;;0.40;100.00
23473;BME280;11909;52.516;13.564;2024-03-08T02:23:58;101693.25;;;0.42;100.00
23473;BME280;11909;52.516;13.564;2024-03-08T02:26:26;101692.06;;;0.45;100.00
23473;BME280;11909;52.516;13.564;2024-03-08T02:28:54;101689.34;;;0.45;100.00
23473;BME280;11909;52.516;13.564;2024-03-08T02:31:22;101683.38;;;0.50;100.00
23473;BME280;11909;52.516;13.564;2024-03-08T02:33:50;101681.97;;;0.54;100.00
23473;BME280;11909;52.516;13.564;2024-03-08T02:36:18;101684.78;;;0.46;100.00
23473;BME280;11909;52.516;13.564;2024-03-08T02:38:47;101684.78;;;0.46;100.00
23473;BME280;11909;52.516;13.564;2024-03-08T02:41:15;101685.81;;;0.45;100.00
23473;BME280;11909;52.516;13.564;2024-03-08T02:43:43;101683.47;;;0.41;100.00
23473;BME280;11909;52.516;13.564;2024-03-08T02:46:11;101676.88;;;0.44;100.00
23473;BME280;11909;52.516;13.564;2024-03-08T02:48:39;101677.69;;;0.45;100.00
23473;BME280;11909;52.516;13.564;2024-03-08T02:51:07;101675.19;;;0.43;100.00
23473;BME280;11909;52.516;13.564;2024-03-08T02:53:50;101673.16;;;0.45;100.00
23473;BME280;11909;52.516;13.564;2024-03-08T02:56:18;101672.50;;;0.43;100.00
23473;BME280;11909;52.516;13.564;2024-03-08T02:58:48;101674.81;;;0.46;100.00
23473;BME280;11909;52.516;13.564;2024-03-08T03:01:15;101665.44;;;0.42;100.00
23473;BME280;11909;52.516;13.564;2024-03-08T03:03:44;101668.13;;;0.42;100.00
23473;BME280;11909;52.516;13.564;2024-03-08T03:06:13;101672.28;;;0.45;100.00
23473;BME280;11909;52.516;13.564;2024-03-08T03:08:41;101666.06;;;0.44;100.00
23473;BME280;11909;52.516;13.564;2024-03-08T03:11:13;101666.63;;;0.39;100.00
23473;BME280;11909;52.516;13.564;2024-03-08T03:13:41;101664.88;;;0.47;100.00
23473;BME280;11909;52.516;13.564;2024-03-08T03:16:17;101661.69;;;0.43;100.00
23473;BME280;11909;52.516;13.564;2024-03-08T03:18:46;101665.59;;;0.40;100.00
23473;BME280;11909;52.516;13.564;2024-03-08T03:21:14;101661.88;;;0.41;100.00
23473;BME280;11909;52.516;13.564;2024-03-08T03:23:44;101661.06;;;0.41;100.00
23473;BME280;11909;52.516;13.564;2024-03-08T03:26:11;101668.50;;;0.39;100.00
23473;BME280;11909;52.516;13.564;2024-03-08T03:28:41;101664.31;;;0.36;100.00
23473;BME280;11909;52.516;13.564;2024-03-08T03:31:09;101669.72;;;0.36;100.00
23473;BME280;11909;52.516;13.564;2024-03-08T03:33:40;101665.16;;;0.37;100.00
23473;BME280;11909;52.516;13.564;2024-03-08T03:36:08;101658.38;;;0.26;100.00
23473;BME280;11909;52.516;13.564;2024-03-08T03:38:37;101658.38;;;0.26;100.00
23473;BME280;11909;52.516;13.564;2024-03-08T03:41:05;101654.66;;;0.27;100.00
23473;BME280;11909;52.516;13.564;2024-03-08T03:43:36;101659.22;;;0.26;100.00
23473;BME280;11909;52.516;13.564;2024-03-08T03:46:07;101658.19;;;0.27;100.00
23473;BME280;11909;52.516;13.564;2024-03-08T03:48:37;101655.88;;;0.24;100.00
23473;BME280;11909;52.516;13.564;2024-03-08T03:51:05;101651.22;;;0.18;100.00
23473;BME280;11909;52.516;13.564;2024-03-08T03:53:33;101650.19;;;0.19;100.00
23473;BME280;11909;52.516;13.564;2024-03-08T03:56:01;101652.91;;;0.19;100.00
23473;BME280;11909;52.516;13.564;2024-03-08T03:58:32;101652.34;;;0.24;100.00
23473;BME280;11909;52.516;13.564;2024-03-08T04:00:59;101655.03;;;0.24;100.00
23473;BME280;11909;52.516;13.564;2024-03-08T04:03:28;101650.47;;;0.24;100.00
23473;BME280;11909;52.516;13.564;2024-03-08T04:05:56;101657.53;;;0.25;100.00
23473;BME280;11909;52.516;13.564;2024-03-08T04:08:24;101647.94;;;0.23;100.00
23473;BME280;11909;52.516;13.564;2024-03-08T04:10:52;101649.81;;;0.22;100.00
23473;BME280;11909;52.516;13.564;2024-03-08T04:13:19;101649.34;;;0.19;100.00
23473;BME280;11909;52.516;13.564;2024-03-08T04:15:47;101650.66;;;0.23;100.00
23473;BME280;11909;52.516;13.564;2024-03-08T04:18:15;101651.66;;;0.22;100.00
23473;BME280;11909;52.516;13.564;2024-03-08T04:20:46;101650.38;;;0.18;100.00
23473;BME280;11909;52.516;13.564;2024-03-08T04:23:14;101651.66;;;0.22;100.00
23473;BME280;11909;52.516;13.564;2024-03-08T04:25:42;101646.56;;;0.27;100.00
23473;BME280;11909;52.516;13.564;2024-03-08T04:28:10;101653.00;;;0.26;100.00
23473;BME280;11909;52.516;13.564;2024-03-08T04:30:38;101654.03;;;0.25;100.00
23473;BME280;11909;52.516;13.564;2024-03-08T04:33:06;101652.25;;;0.17;100.00
23473;BME280;11909;52.516;13.564;2024-03-08T04:35:35;101657.66;;;0.17;100.00
23473;BME280;11909;52.516;13.564;2024-03-08T04:38:05;101655.69;;;0.11;100.00
23473;BME280;11909;52.516;13.564;2024-03-08T04:40:33;101662.13;;;0.10;100.00
23473;BME280;11909;52.516;13.564;2024-03-08T04:43:01;101657.84;;;0.01;100.00
23473;BME280;11909;52.516;13.564;2024-03-08T04:45:29;101657.56;;;0.10;100.00
23473;BME280;11909;52.516;13.564;2024-03-08T04:47:57;101651.78;;;0.13;100.00
23473;BME280;11909;52.516;13.564;2024-03-08T04:50:25;101652.94;;;0.04;100.00
23473;BME280;11909;52.516;13.564;2024-03-08T04:52:55;101650.13;;;-0.03;100.00
23473;BME280;11909;52.516;13.564;2024-03-08T04:55:24;101648.38;;;-0.10;100.00
23473;BME280;11909;52.516;13.564;2024-03-08T04:57:52;101643.91;;;-0.18;100.00
23473;BME280;11909;52.516;13.564;2024-03-08T05:00:19;101648.53;;;-0.27;100.00
23473;BME280;11909;52.516;13.564;2024-03-08T05:02:47;101641.69;;;-0.30;100.00
23473;BME280;11909;52.516;13.564;2024-03-08T05:05:19;101644.75;;;-0.33;100.00
23473;BME280;11909;52.516;13.564;2024-03-08T05:07:47;101646.44;;;-0.32;100.00
23473;BME280;11909;52.516;13.564;2024-03-08T05:10:16;101638.13;;;-0.30;100.00
23473;BME280;11909;52.516;13.564;2024-03-08T05:12:45;101637.09;;;-0.29;100.00
23473;BME280;11909;52.516;13.564;2024-03-08T05:15:13;101636.09;;;-0.28;100.00
23473;BME280;11909;52.516;13.564;2024-03-08T05:17:41;101624.91;;;-0.25;100.00
23473;BME280;11909;52.516;13.564;2024-03-08T05:20:09;101628.28;;;-0.23;100.00
23473;BME280;11909;52.516;13.564;2024-03-08T05:22:39;101626.03;;;-0.19;100.00
23473;BME280;11909;52.516;13.564;2024-03-08T05:25:08;101626.50;;;-0.16;100.00
23473;BME280;11909;52.516;13.564;2024-03-08T05:27:36;101624.16;;;-0.04;100.00
23473;BME280;11909;52.516;13.564;2024-03-08T05:30:06;101626.50;;;-0.01;100.00
23473;BME280;11909;52.516;13.564;2024-03-08T05:32:41;101626.66;;;-0.02;100.00
23473;BME280;11909;52.516;13.564;2024-03-08T05:35:11;101622.94;;;-0.01;100.00
23473;BME280;11909;52.516;13.564;2024-03-08T05:37:39;101618.94;;;-0.05;100.00
23473;BME280;11909;52.516;13.564;2024-03-08T05:40:07;101609.56;;;-0.09;100.00
23473;BME280;11909;52.516;13.564;2024-03-08T05:42:43;101617.09;;;-0.05;100.00
23473;BME280;11909;52.516;13.564;2024-03-08T05:45:12;101617.19;;;-0.13;100.00
23473;BME280;11909;52.516;13.564;2024-03-08T05:47:41;101614.97;;;-0.09;100.00
23473;BME280;11909;52.516;13.564;2024-03-08T05:50:09;101609.94;;;-0.12;100.00
23473;BME280;11909;52.516;13.564;2024-03-08T05:52:37;101612.38;;;-0.18;100.00
23473;BME280;11909;52.516;13.564;2024-03-08T05:55:06;101614.59;;;-0.21;100.00
23473;BME280;11909;52.516;13.564;2024-03-08T05:57:34;101615.25;;;-0.34;100.00
23473;BME280;11909;52.516;13.564;2024-03-08T06:00:04;101616.44;;;-0.37;100.00
23473;BME280;11909;52.516;13.564;2024-03-08T06:02:34;101618.13;;;-0.36;100.00
23473;BME280;11909;52.516;13.564;2024-03-08T06:05:08;101621.28;;;-0.32;100.00
23473;BME280;11909;52.516;13.564;2024-03-08T06:07:36;101640.00;;;-0.31;100.00
23473;BME280;11909;52.516;13.564;2024-03-08T06:10:07;101625.19;;;-0.35;100.00
23473;BME280;11909;52.516;13.564;2024-03-08T06:12:36;101625.50;;;-0.30;100.00
23473;BME280;11909;52.516;13.564;2024-03-08T06:15:06;101634.31;;;-0.36;100.00
23473;BME280;11909;52.516;13.564;2024-03-08T06:17:36;101628.38;;;-0.31;100.00
23473;BME280;11909;52.516;13.564;2024-03-08T06:20:04;101626.53;;;-0.31;100.00
23473;BME280;11909;52.516;13.564;2024-03-08T06:22:36;101628.19;;;-0.30;100.00
23473;BME280;11909;52.516;13.564;2024-03-08T06:25:06;101630.69;;;-0.28;100.00
23473;BME280;11909;52.516;13.564;2024-03-08T06:27:33;101636.94;;;-0.27;100.00
23473;BME280;11909;52.516;13.564;2024-03-08T06:30:01;101631.16;;;-0.24;100.00
23473;BME280;11909;52.516;13.564;2024-03-08T06:32:30;101630.78;;;-0.21;100.00
23473;BME280;11909;52.516;13.564;2024-03-08T06:35:04;101628.09;;;-0.21;100.00
23473;BME280;11909;52.516;13.564;2024-03-08T06:37:32;101638.72;;;-0.20;100.00
23473;BME280;11909;52.516;13.564;2024-03-08T06:40:00;101628.34;;;-0.16;100.00
23473;BME280;11909;52.516;13.564;2024-03-08T06:42:30;101629.00;;;-0.14;100.00
23473;BME280;11909;52.516;13.564;2024-03-08T06:45:00;101623.44;;;-0.12;100.00
23473;BME280;11909;52.516;13.564;2024-03-08T06:47:31;101626.94;;;-0.12;100.00
23473;BME280;11909;52.516;13.564;2024-03-08T06:50:00;101620.81;;;-0.06;100.00
23473;BME280;11909;52.516;13.564;2024-03-08T06:52:29;101626.97;;;0.03;100.00
23473;BME280;11909;52.516;13.564;2024-03-08T06:54:57;101629.72;;;0.10;100.00
23473;BME280;11909;52.516;13.564;2024-03-08T06:57:24;101626.16;;;0.24;100.00
23473;BME280;11909;52.516;13.564;2024-03-08T06:59:53;101623.56;;;0.31;100.00
23473;BME280;11909;52.516;13.564;2024-03-08T07:02:21;101628.19;;;0.37;100.00
23473;BME280;11909;52.516;13.564;2024-03-08T07:04:50;101625.75;;;0.42;100.00
23473;BME280;11909;52.516;13.564;2024-03-08T07:07:19;101632.91;;;0.50;100.00
23473;BME280;11909;52.516;13.564;2024-03-08T07:09:49;101635.50;;;0.59;100.00
23473;BME280;11909;52.516;13.564;2024-03-08T07:12:16;101633.88;;;0.64;100.00
23473;BME280;11909;52.516;13.564;2024-03-08T07:14:44;101629.00;;;0.75;100.00
23473;BME280;11909;52.516;13.564;2024-03-08T07:17:12;101636.97;;;0.83;100.00
23473;BME280;11909;52.516;13.564;2024-03-08T07:19:40;101645.97;;;0.90;100.00
23473;BME280;11909;52.516;13.564;2024-03-08T07:22:08;101641.72;;;1.03;100.00
23473;BME280;11909;52.516;13.564;2024-03-08T07:24:36;101640.53;;;1.12;100.00
23473;BME280;11909;52.516;13.564;2024-03-08T07:27:23;101637.09;;;1.25;100.00
23473;BME280;11909;52.516;13.564;2024-03-08T07:29:51;101639.13;;;1.45;100.00
23473;BME280;11909;52.516;13.564;2024-03-08T07:32:34;101640.16;;;1.43;100.00
23473;BME280;11909;52.516;13.564;2024-03-08T07:35:02;101637.31;;;1.52;100.00
23473;BME280;11909;52.516;13.564;2024-03-08T07:37:30;101629.63;;;1.55;100.00
23473;BME280;11909;52.516;13.564;2024-03-08T07:39:58;101637.97;;;1.61;100.00
23473;BME280;11909;52.516;13.564;2024-03-08T07:42:28;101630.53;;;1.63;100.00
23473;BME280;11909;52.516;13.564;2024-03-08T07:44:56;101629.72;;;1.69;100.00
23473;BME280;11909;52.516;13.564;2024-03-08T07:47:23;101628.69;;;1.70;100.00
23473;BME280;11909;52.516;13.564;2024-03-08T07:49:53;101627.94;;;1.83;100.00
23473;BME280;11909;52.516;13.564;2024-03-08T07:52:21;101630.03;;;1.88;100.00
23473;BME280;11909;52.516;13.564;2024-03-08T07:54:49;101624.63;;;1.94;100.00
23473;BME280;11909;52.516;13.564;2024-03-08T07:57:17;101621.16;;;2.07;100.00
23473;BME280;11909;52.516;13.564;2024-03-08T07:59:46;101626.19;;;2.17;100.00
23473;BME280;11909;52.516;13.564;2024-03-08T08:02:15;101620.41;;;2.34;100.00
23473;BME280;11909;52.516;13.564;2024-03-08T08:04:43;101628.56;;;2.40;100.00
23473;BME280;11909;52.516;13.564;2024-03-08T08:07:11;101635.47;;;2.50;100.00
23473;BME280;11909;52.516;13.564;2024-03-08T08:09:40;101629.63;;;2.53;100.00
23473;BME280;11909;52.516;13.564;2024-03-08T08:12:09;101625.91;;;2.61;100.00
23473;BME280;11909;52.516;13.564;2024-03-08T08:14:38;101625.31;;;2.72;100.00
23473;BME280;11909;52.516;13.564;2024-03-08T08:17:08;101621.59;;;2.80;100.00
23473;BME280;11909;52.516;13.564;2024-03-08T08:19:36;101620.53;;;2.87;100.00
23473;BME280;11909;52.516;13.564;2024-03-08T08:22:05;101622.84;;;2.91;100.00
23473;BME280;11909;52.516;13.564;2024-03-08T08:24:35;101625.75;;;3.16;100.00
23473;BME280;11909;52.516;13.564;2024-03-08T08:27:03;101623.25;;;3.21;100.00
23473;BME280;11909;52.516;13.564;2024-03-08T08:29:31;101622.63;;;3.26;100.00
23473;BME280;11909;52.516;13.564;2024-03-08T08:31:59;101628.88;;;3.33;100.00
23473;BME280;11909;52.516;13.564;2024-03-08T08:34:30;101616.97;;;3.34;100.00
23473;BME280;11909;52.516;13.564;2024-03-08T08:36:59;101620.31;;;3.43;100.00
23473;BME280;11909;52.516;13.564;2024-03-08T08:39:27;101613.19;;;3.55;100.00
23473;BME280;11909;52.516;13.564;2024-03-08T08:41:54;101625.06;;;3.68;100.00
23473;BME280;11909;52.516;13.564;2024-03-08T08:44:23;101618.56;;;3.82;97.34
23473;BME280;11909;52.516;13.564;2024-03-08T08:46:52;101626.06;;;3.94;95.62
23473;BME280;11909;52.516;13.564;2024-03-08T08:49:32;101622.28;;;3.95;94.35
23473;BME280;11909;52.516;13.564;2024-03-08T08:52:00;101612.22;;;4.02;93.88
23473;BME280;11909;52.516;13.564;2024-03-08T08:54:41;101616.78;;;4.08;93.34
23473;BME280;11909;52.516;13.564;2024-03-08T08:57:08;101614.63;;;4.24;93.66
23473;BME280;11909;52.516;13.564;2024-03-08T08:59:36;101617.94;;;4.33;91.08
23473;BME280;11909;52.516;13.564;2024-03-08T09:02:06;101609.13;;;4.37;89.64
23473;BME280;11909;52.516;13.564;2024-03-08T09:04:38;101611.38;;;4.47;88.50
23473;BME280;11909;52.516;13.564;2024-03-08T09:07:06;101607.19;;;4.51;89.47
23473;BME280;11909;52.516;13.564;2024-03-08T09:09:34;101605.16;;;4.72;88.73
23473;BME280;11909;52.516;13.564;2024-03-08T09:12:02;101609.72;;;4.78;86.88
23473;BME280;11909;52.516;13.564;2024-03-08T09:14:31;101600.88;;;4.83;87.81
23473;BME280;11909;52.516;13.564;2024-03-08T09:16:58;101605.56;;;5.01;85.36
23473;BME280;11909;52.516;13.564;2024-03-08T09:19:26;101606.50;;;5.13;83.33
23473;BME280;11909;52.516;13.564;2024-03-08T09:21:56;101602.47;;;5.23;83.03
23473;BME280;11909;52.516;13.564;2024-03-08T09:24:23;101605.00;;;5.43;81.02
23473;BME280;11909;52.516;13.564;2024-03-08T09:26:51;101601.81;;;5.46;81.45
23473;BME280;11909;52.516;13.564;2024-03-08T09:29:19;101582.38;;;5.61;80.23
23473;BME280;11909;52.516;13.564;2024-03-08T09:31:47;101589.81;;;5.72;81.28
23473;BME280;11909;52.516;13.564;2024-03-08T09:34:15;101591.38;;;5.99;79.16
23473;BME280;11909;52.516;13.564;2024-03-08T09:36:50;101589.59;;;6.11;77.52
23473;BME280;11909;52.516;13.564;2024-03-08T09:39:20;101573.88;;;6.25;76.39
23473;BME280;11909;52.516;13.564;2024-03-08T09:41:52;101579.03;;;6.45;74.30
23473;BME280;11909;52.516;13.564;2024-03-08T09:44:22;101580.13;;;6.56;73.46
23473;BME280;11909;52.516;13.564;2024-03-08T09:46:54;101581.03;;;6.81;71.44
23473;BME280;11909;52.516;13.564;2024-03-08T09:49:22;101573.56;;;6.88;74.22
23473;BME280;11909;52.516;13.564;2024-03-08T09:51:51;101575.38;;;7.06;71.90
23473;BME280;11909;52.516;13.564;2024-03-08T09:54:21;101578.81;;;7.01;69.51
23473;BME280;11909;52.516;13.564;2024-03-08T09:56:50;101577.28;;;7.17;69.94
23473;BME280;11909;52.516;13.564;2024-03-08T09:59:18;101566.72;;;7.33;69.86
23473;BME280;11909;52.516;13.564;2024-03-08T10:02:12;101574.66;;;7.46;68.84
23473;BME280;11909;52.516;13.564;2024-03-08T10:04:41;101571.28;;;7.68;67.05
23473;BME280;11909;52.516;13.564;2024-03-08T10:07:08;101566.69;;;7.69;67.26
23473;BME280;11909;52.516;13.564;2024-03-08T10:09:38;101559.06;;;7.71;66.84
23473;BME280;11909;52.516;13.564;2024-03-08T10:12:05;101561.41;;;7.79;65.96
23473;BME280;11909;52.516;13.564;2024-03-08T10:14:34;101545.19;;;8.01;69.69
23473;BME280;11909;52.516;13.564;2024-03-08T10:17:05;101567.16;;;8.07;64.97
23473;BME280;11909;52.516;13.564;2024-03-08T10:19:33;101567.97;;;8.07;61.56
23473;BME280;11909;52.516;13.564;2024-03-08T10:22:01;101567.69;;;8.21;61.66
23473;BME280;11909;52.516;13.564;2024-03-08T10:24:31;101555.94;;;8.20;61.00
23473;BME280;11909;52.516;13.564;2024-03-08T10:27:03;101555.78;;;8.27;61.53
23473;BME280;11909;52.516;13.564;2024-03-08T10:29:32;101559.94;;;8.29;61.18
23473;BME280;11909;52.516;13.564;2024-03-08T10:32:00;101551.72;;;8.29;60.83
23473;BME280;11909;52.516;13.564;2024-03-08T10:34:29;101560.22;;;8.45;56.26
23473;BME280;11909;52.516;13.564;2024-03-08T10:36:58;101555.72;;;8.39;55.98
23473;BME280;11909;52.516;13.564;2024-03-08T10:39:33;101547.84;;;8.42;56.58
23473;BME280;11909;52.516;13.564;2024-03-08T10:42:04;101544.88;;;8.44;55.53
23473;BME280;11909;52.516;13.564;2024-03-08T10:44:38;101550.56;;;8.54;54.42
23473;BME280;11909;52.516;13.564;2024-03-08T10:47:10;101545.66;;;8.56;53.30
23473;BME280;11909;52.516;13.564;2024-03-08T10:49:44;101546.25;;;8.58;54.73
23473;BME280;11909;52.516;13.564;2024-03-08T10:52:18;101537.88;;;8.65;54.02
23473;BME280;11909;52.516;13.564;2024-03-08T10:54:47;101541.84;;;8.74;52.18
23473;BME280;11909;52.516;13.564;2024-03-08T10:57:17;101524.34;;;8.75;53.55
23473;BME280;11909;52.516;13.564;2024-03-08T10:59:47;101520.94;;;8.85;53.48
23473;BME280;11909;52.516;13.564;2024-03-08T11:02:16;101528.19;;;8.92;51.56
23473;BME280;11909;52.516;13.564;2024-03-08T11:04:46;101519.97;;;8.92;53.47
23473;BME280;11909;52.516;13.564;2024-03-08T11:07:13;101511.00;;;8.96;53.30
23473;BME280;11909;52.516;13.564;2024-03-08T11:09:44;101506.69;;;9.00;53.31
23473;BME280;11909;52.516;13.564;2024-03-08T11:12:20;101506.84;;;9.11;52.54
23473;BME280;11909;52.516;13.564;2024-03-08T11:14:48;101497.09;;;9.20;51.34
23473;BME280;11909;52.516;13.564;2024-03-08T11:17:20;101496.34;;;9.25;52.64
23473;BME280;11909;52.516;13.564;2024-03-08T11:19:49;101501.06;;;9.29;51.13
23473;BME280;11909;52.516;13.564;2024-03-08T11:22:22;101485.22;;;9.31;52.44
23473;BME280;11909;52.516;13.564;2024-03-08T11:24:53;101480.19;;;9.45;53.47
23473;BME280;11909;52.516;13.564;2024-03-08T11:27:25;101473.16;;;9.55;53.05
23473;BME280;11909;52.516;13.564;2024-03-08T11:30:02;101474.06;;;9.60;51.48
23473;BME280;11909;52.516;13.564;2024-03-08T11:32:44;101461.94;;;9.56;52.86
23473;BME280;11909;52.516;13.564;2024-03-08T11:35:17;101460.69;;;9.64;52.98
23473;BME280;11909;52.516;13.564;2024-03-08T11:37:46;101464.75;;;9.61;52.38
23473;BME280;11909;52.516;13.564;2024-03-08T11:40:14;101457.75;;;9.49;52.81
23473;BME280;11909;52.516;13.564;2024-03-08T11:42:45;101455.53;;;9.45;53.32
23473;BME280;11909;52.516;13.564;2024-03-08T11:45:15;101451.63;;;9.41;52.31
23473;BME280;11909;52.516;13.564;2024-03-08T11:47:44;101445.97;;;9.48;53.64
23473;BME280;11909;52.516;13.564;2024-03-08T11:50:12;101447.50;;;9.39;52.74
23473;BME280;11909;52.516;13.564;2024-03-08T11:52:40;101445.31;;;9.41;54.33
23473;BME280;11909;52.516;13.564;2024-03-08T11:55:09;101453.97;;;9.55;51.79
23473;BME280;11909;52.516;13.564;2024-03-08T11:57:39;101446.03;;;9.53;51.54
23473;BME280;11909;52.516;13.564;2024-03-08T12:00:16;101445.84;;;9.60;50.99
23473;BME280;11909;52.516;13.564;2024-03-08T12:03:00;101445.38;;;9.68;51.07
23473;BME280;11909;52.516;13.564;2024-03-08T12:05:28;101447.34;;;9.73;49.48
23473;BME280;11909;52.516;13.564;2024-03-08T12:07:57;101444.81;;;9.66;50.31
23473;BME280;11909;52.516;13.564;2024-03-08T12:10:25;101442.00;;;9.61;49.71
23473;BME280;11909;52.516;13.564;2024-03-08T12:12:54;101436.53;;;9.61;49.95
23473;BME280;11909;52.516;13.564;2024-03-08T12:15:24;101448.47;;;9.77;49.76
23473;BME280;11909;52.516;13.564;2024-03-08T12:17:53;101440.22;;;9.72;48.91
23473;BME280;11909;52.516;13.564;2024-03-08T12:20:22;101440.97;;;9.67;49.20
23473;BME280;11909;52.516;13.564;2024-03-08T12:22:52;101432.75;;;9.67;48.38
23473;BME280;11909;52.516;13.564;2024-03-08T12:25:20;101426.69;;;9.65;48.89
23473;BME280;11909;52.516;13.564;2024-03-08T12:27:48;101427.84;;;9.69;47.89
23473;BME280;11909;52.516;13.564;2024-03-08T12:30:19;101417.97;;;9.68;48.92
23473;BME280;11909;52.516;13.564;2024-03-08T12:32:52;101416.97;;;9.80;48.04
23473;BME280;11909;52.516;13.564;2024-03-08T12:35:20;101414.19;;;9.74;49.09
23473;BME280;11909;52.516;13.564;2024-03-08T12:37:50;101416.81;;;9.64;48.69
23473;BME280;11909;52.516;13.564;2024-03-08T12:40:18;101402.00;;;9.60;47.51
23473;BME280;11909;52.516;13.564;2024-03-08T12:42:48;101409.38;;;9.59;47.91
23473;BME280;11909;52.516;13.564;2024-03-08T12:45:15;101398.41;;;9.59;48.35
23473;BME280;11909;52.516;13.564;2024-03-08T12:47:43;101393.53;;;9.67;48.29
23473;BME280;11909;52.516;13.564;2024-03-08T12:50:13;101390.59;;;9.73;48.63